createdAt,value
2018-03-08T00:01:18.933Z,6.50
2018-03-08T00:04:04.693Z,6.40
2018-03-08T00:06:32.915Z,6.87
2018-03-08T00:09:01.064Z,6.70
2018-03-08T00:11:29.225Z,5.90
2018-03-08T00:13:57.396Z,5.30
2018-03-08T00:16:25.694Z,6.03
2018-03-08T00:18:54.688Z,5.57
2018-03-08T00:21:23.620Z,5.73
2018-03-08T00:23:51.767Z,5.33
2018-03-08T00:26:20.868Z,5.40
2018-03-08T00:28:49.049Z,5.20
2018-03-08T00:31:17.198Z,4.97
2018-03-08T00:33:46.118Z,4.70
2018-03-08T00:36:16.677Z,5.10
2018-03-08T00:38:44.820Z,4.57
2018-03-08T00:41:12.976Z,4.50
2018-03-08T00:43:41.962Z,4.20
2018-03-08T00:46:11.718Z,4.50
2018-03-08T00:48:39.857Z,4.87
2018-03-08T00:51:08.124Z,4.80
2018-03-08T00:53:37.050Z,4.80
2018-03-08T00:56:05.216Z,5.40
2018-03-08T00:58:33.986Z,5.00
2018-03-08T01:01:02.992Z,5.43
2018-03-08T01:03:31.257Z,5.43
2018-03-08T01:05:59.453Z,5.07
2018-03-08T01:08:27.591Z,5.77
2018-03-08T01:10:55.925Z,5.23
2018-03-08T01:13:24.240Z,5.03
2018-03-08T01:15:53.341Z,4.73
2018-03-08T01:18:21.818Z,4.57
2018-03-08T01:20:51.238Z,5.37
2018-03-08T01:23:19.510Z,5.07
2018-03-08T01:25:47.650Z,5.20
2018-03-08T01:28:15.970Z,5.90
2018-03-08T01:30:44.147Z,5.40
2018-03-08T01:33:12.362Z,5.50
2018-03-08T01:35:40.811Z,6.10
2018-03-08T01:38:08.965Z,5.60
2018-03-08T01:40:37.104Z,5.83
2018-03-08T01:43:05.336Z,5.17
2018-03-08T01:45:33.482Z,5.50
2018-03-08T01:48:01.667Z,5.70
2018-03-08T01:50:29.865Z,5.63
2018-03-08T01:52:58.936Z,5.20
2018-03-08T01:55:27.888Z,5.20
2018-03-08T01:57:56.821Z,6.43
2018-03-08T02:00:24.970Z,6.00
2018-03-08T02:02:54.705Z,5.37
2018-03-08T02:05:22.855Z,5.77
2018-03-08T02:07:51.766Z,6.30
2018-03-08T02:10:19.918Z,6.20
2018-03-08T02:12:48.939Z,5.90
2018-03-08T02:15:17.923Z,6.43
2018-03-08T02:17:46.060Z,6.37
2018-03-08T02:20:14.461Z,7.10
2018-03-08T02:22:42.597Z,7.57
2018-03-08T02:25:11.653Z,6.73
2018-03-08T02:27:40.230Z,6.90
2018-03-08T02:30:08.393Z,6.77
2018-03-08T02:32:37.300Z,7.30
2018-03-08T02:35:05.485Z,7.30
2018-03-08T02:37:33.720Z,8.00
2018-03-08T02:40:01.867Z,7.90
2018-03-08T02:42:30.034Z,7.67
2018-03-08T02:44:58.251Z,8.50
2018-03-08T02:47:27.275Z,7.33
2018-03-08T02:49:56.260Z,8.27
2018-03-08T02:52:24.870Z,7.83
2018-03-08T02:54:53.198Z,8.07
2018-03-08T02:57:21.383Z,7.80
2018-03-08T02:59:49.588Z,8.23
2018-03-08T03:02:17.856Z,8.20
2018-03-08T03:04:46.096Z,8.27
2018-03-08T03:07:16.431Z,8.30
2018-03-08T03:09:45.347Z,8.93
2018-03-08T03:12:13.495Z,9.17
2018-03-08T03:14:41.654Z,9.17
2018-03-08T03:17:10.631Z,9.17
2018-03-08T03:19:39.044Z,8.80
2018-03-08T03:22:07.398Z,9.00
2018-03-08T03:24:36.301Z,9.80
2018-03-08T03:27:05.261Z,9.17
2018-03-08T03:29:33.435Z,9.63
2018-03-08T03:32:05.585Z,9.90
2018-03-08T03:34:33.778Z,10.00
2018-03-08T03:37:02.184Z,10.57
2018-03-08T03:39:31.075Z,10.37
2018-03-08T03:42:00.011Z,10.97
2018-03-08T03:44:28.151Z,11.93
2018-03-08T03:46:56.511Z,11.40
2018-03-08T03:49:25.451Z,12.37
2018-03-08T03:51:53.600Z,12.57
2018-03-08T03:54:21.757Z,12.07
2018-03-08T03:56:50.688Z,13.33
2018-03-08T03:59:18.843Z,14.40
2018-03-08T04:01:46.986Z,13.50
2018-03-08T04:04:17.021Z,15.43
2018-03-08T04:06:45.174Z,15.77
2018-03-08T04:09:14.169Z,15.60
2018-03-08T04:11:43.174Z,17.60
2018-03-08T04:14:12.080Z,16.10
2018-03-08T04:16:40.361Z,17.10
2018-03-08T04:19:08.533Z,18.87
2018-03-08T04:21:36.677Z,19.10
2018-03-08T04:24:05.595Z,20.63
2018-03-08T04:26:33.792Z,21.33
2018-03-08T04:29:03.463Z,21.97
2018-03-08T04:31:32.017Z,22.13
2018-03-08T04:34:00.179Z,22.73
2018-03-08T04:36:29.032Z,24.50
2018-03-08T04:38:57.186Z,23.00
2018-03-08T04:41:25.356Z,23.67
2018-03-08T04:43:54.270Z,23.93
2018-03-08T04:46:22.439Z,26.03
2018-03-08T04:48:50.694Z,26.03
2018-03-08T04:51:19.402Z,24.93
2018-03-08T04:53:47.670Z,27.63
2018-03-08T04:56:15.834Z,26.73
2018-03-08T04:58:44.740Z,26.87
2018-03-08T05:01:12.891Z,27.30
2018-03-08T05:03:41.806Z,29.70
2018-03-08T05:06:09.948Z,28.77
2018-03-08T05:08:38.093Z,28.57
2018-03-08T05:11:06.277Z,28.80
2018-03-08T05:13:34.417Z,28.73
2018-03-08T05:16:03.373Z,30.37
2018-03-08T05:18:32.301Z,30.33
2018-03-08T05:21:00.543Z,30.67
2018-03-08T05:23:28.680Z,31.37
2018-03-08T05:25:56.834Z,30.93
2018-03-08T05:28:25.003Z,31.13
2018-03-08T05:30:53.314Z,30.10
2018-03-08T05:33:22.255Z,29.37
2018-03-08T05:35:50.405Z,30.23
2018-03-08T05:38:19.314Z,31.13
2018-03-08T05:40:47.802Z,30.40
2018-03-08T05:43:16.726Z,30.13
2018-03-08T05:45:44.878Z,31.60
2018-03-08T05:48:13.085Z,31.87
2018-03-08T05:50:43.105Z,30.27
2018-03-08T05:53:11.299Z,30.23
2018-03-08T05:55:39.971Z,28.83
2018-03-08T05:58:08.891Z,29.43
2018-03-08T06:00:37.055Z,28.33
2018-03-08T06:03:06.018Z,27.70
2018-03-08T06:05:34.503Z,27.80
2018-03-08T06:08:03.431Z,26.40
2018-03-08T06:10:31.652Z,25.80
2018-03-08T06:12:59.918Z,23.23
2018-03-08T06:15:28.080Z,23.87
2018-03-08T06:17:56.279Z,23.20
2018-03-08T06:20:24.437Z,22.30
2018-03-08T06:22:53.252Z,22.57
2018-03-08T06:25:21.490Z,21.90
2018-03-08T06:27:49.735Z,20.80
2018-03-08T06:30:17.985Z,21.40
2018-03-08T06:32:46.228Z,19.63
2018-03-08T06:35:15.266Z,19.93
2018-03-08T06:37:43.460Z,19.77
2018-03-08T06:40:11.644Z,18.93
2018-03-08T06:42:39.860Z,19.10
2018-03-08T06:45:08.025Z,17.57
2018-03-08T06:47:36.783Z,16.37
2018-03-08T06:50:05.060Z,16.37
2018-03-08T06:52:33.306Z,16.77
2018-03-08T06:55:02.231Z,18.30
2018-03-08T06:57:30.485Z,15.37
2018-03-08T06:59:58.630Z,14.17
2018-03-08T07:02:27.591Z,13.80
2018-03-08T07:04:56.027Z,13.23
2018-03-08T07:07:24.193Z,13.13
2018-03-08T07:09:53.141Z,12.50
2018-03-08T07:12:21.460Z,12.60
2018-03-08T07:14:49.636Z,13.07
2018-03-08T07:17:18.634Z,12.27
2018-03-08T07:19:47.554Z,11.73
2018-03-08T07:22:15.718Z,11.10
2018-03-08T07:24:44.036Z,10.93
2018-03-08T07:27:12.823Z,12.03
2018-03-08T07:29:40.974Z,10.53
2018-03-08T07:32:09.217Z,11.03
2018-03-08T07:34:37.406Z,12.33
2018-03-08T07:37:05.707Z,14.17
2018-03-08T07:39:33.859Z,13.20
2018-03-08T07:42:02.648Z,10.13
2018-03-08T07:44:30.926Z,11.73
2018-03-08T07:46:59.083Z,11.40
2018-03-08T07:49:27.234Z,11.00
2018-03-08T07:51:55.732Z,9.43
2018-03-08T07:54:23.896Z,10.73
2018-03-08T07:56:52.799Z,12.17
2018-03-08T07:59:22.062Z,12.57
2018-03-08T08:01:51.012Z,10.50
2018-03-08T08:04:30.870Z,9.60
2018-03-08T08:07:19.866Z,10.33
2018-03-08T08:09:48.019Z,9.73
2018-03-08T08:12:16.158Z,8.00
2018-03-08T08:14:44.550Z,8.67
2018-03-08T08:17:12.701Z,8.27
2018-03-08T08:19:41.009Z,7.80
2018-03-08T08:22:09.862Z,7.90
2018-03-08T08:24:39.039Z,7.73
2018-03-08T08:27:07.273Z,8.50
2018-03-08T08:29:35.424Z,8.10
2018-03-08T08:32:03.559Z,7.90
2018-03-08T08:34:31.739Z,7.60
2018-03-08T08:37:00.153Z,7.50
2018-03-08T08:39:28.293Z,8.03
2018-03-08T08:41:57.199Z,6.90
2018-03-08T08:44:30.542Z,7.50
2018-03-08T08:46:58.678Z,7.10
2018-03-08T08:49:27.160Z,7.00
2018-03-08T08:51:55.309Z,7.40
2018-03-08T08:54:23.472Z,6.07
2018-03-08T08:56:51.660Z,6.80
2018-03-08T08:59:20.699Z,6.77
2018-03-08T09:01:49.181Z,6.50
2018-03-08T09:04:17.330Z,5.83
2018-03-08T09:06:45.753Z,5.90
2018-03-08T09:09:13.906Z,6.03
2018-03-08T09:11:42.061Z,5.90
2018-03-08T09:14:10.210Z,5.73
2018-03-08T09:16:38.501Z,5.50
2018-03-08T09:19:06.690Z,5.10
2018-03-08T09:21:35.823Z,5.50
2018-03-08T09:24:04.190Z,5.30
2018-03-08T09:26:32.540Z,6.37
2018-03-08T09:29:00.816Z,7.20
2018-03-08T09:31:29.681Z,7.17
2018-03-08T09:33:57.834Z,5.90
2018-03-08T09:36:26.023Z,5.77
2018-03-08T09:38:54.231Z,4.90
2018-03-08T09:41:22.558Z,16.07
2018-03-08T09:43:50.752Z,12.17
2018-03-08T09:46:19.666Z,6.73
2018-03-08T09:48:47.812Z,5.10
2018-03-08T09:51:16.109Z,4.90
2018-03-08T09:53:44.276Z,5.17
2018-03-08T09:56:13.228Z,5.53
2018-03-08T09:58:41.640Z,5.40
2018-03-08T10:01:10.041Z,5.20
2018-03-08T10:03:38.203Z,5.07
2018-03-08T10:06:06.364Z,4.97
2018-03-08T10:08:35.306Z,4.93
2018-03-08T10:11:03.462Z,5.47
2018-03-08T10:13:31.636Z,5.27
2018-03-08T10:16:00.394Z,5.03
2018-03-08T10:18:29.907Z,6.13
2018-03-08T10:20:58.280Z,5.20
2018-03-08T10:23:27.211Z,5.20
2018-03-08T10:25:55.412Z,5.30
2018-03-08T10:28:24.181Z,5.30
2018-03-08T10:30:52.329Z,5.00
2018-03-08T10:33:20.563Z,5.83
2018-03-08T10:35:48.886Z,5.17
2018-03-08T10:38:17.133Z,5.40
2018-03-08T10:40:46.034Z,5.73
2018-03-08T10:43:14.168Z,5.80
2018-03-08T10:45:42.332Z,5.80
2018-03-08T10:48:10.661Z,5.57
2018-03-08T10:50:38.917Z,5.60
2018-03-08T10:53:07.950Z,6.13
2018-03-08T10:55:36.079Z,5.80
2018-03-08T10:58:04.454Z,5.73
2018-03-08T11:00:38.945Z,6.00
2018-03-08T11:03:07.140Z,5.70
2018-03-08T11:05:41.089Z,5.10
2018-03-08T11:08:09.348Z,5.00
2018-03-08T11:10:37.653Z,4.73
2018-03-08T11:13:05.804Z,5.17
2018-03-08T11:15:33.973Z,4.83
2018-03-08T11:18:02.209Z,4.90
2018-03-08T11:20:30.356Z,5.00
2018-03-08T11:22:58.635Z,4.63
2018-03-08T11:25:26.853Z,4.60
2018-03-08T11:27:55.774Z,5.30
2018-03-08T11:30:23.990Z,4.07
2018-03-08T11:32:52.518Z,3.63
2018-03-08T11:35:21.700Z,3.80
2018-03-08T11:37:53.814Z,4.37
2018-03-08T11:40:23.086Z,4.30
2018-03-08T11:42:51.249Z,4.20
2018-03-08T11:45:19.485Z,4.23
2018-03-08T11:47:48.246Z,3.90
2018-03-08T11:50:15.783Z,3.97
2018-03-08T11:52:44.327Z,4.10
2018-03-08T11:55:13.258Z,4.17
2018-03-08T11:57:41.522Z,4.20
2018-03-08T12:00:10.719Z,4.20
2018-03-08T12:02:39.272Z,4.70
2018-03-08T12:05:07.628Z,4.27
2018-03-08T12:07:36.059Z,3.80
2018-03-08T12:10:04.894Z,3.37
2018-03-08T12:12:33.674Z,3.50
2018-03-08T12:15:01.890Z,3.57
2018-03-08T12:17:30.045Z,3.27
2018-03-08T12:19:58.276Z,3.80
2018-03-08T12:22:27.272Z,3.47
2018-03-08T12:24:55.433Z,3.90
2018-03-08T12:27:23.820Z,3.63
2018-03-08T12:29:51.998Z,3.47
2018-03-08T12:32:20.172Z,3.53
2018-03-08T12:34:48.436Z,3.60
2018-03-08T12:37:16.810Z,3.70
2018-03-08T12:39:45.851Z,3.83
2018-03-08T12:42:14.207Z,3.23
2018-03-08T12:44:43.278Z,3.43
2018-03-08T12:47:12.296Z,3.70
2018-03-08T12:49:40.470Z,3.93
2018-03-08T12:52:09.260Z,3.93
2018-03-08T12:54:37.595Z,3.60
2018-03-08T12:57:05.768Z,3.53
2018-03-08T12:59:33.943Z,4.07
2018-03-08T13:02:02.164Z,3.90
2018-03-08T13:04:30.413Z,4.33
2018-03-08T13:06:59.317Z,4.23
2018-03-08T13:09:27.497Z,4.73
2018-03-08T13:11:55.886Z,4.80
2018-03-08T13:14:24.073Z,4.90
2018-03-08T13:16:52.363Z,5.33
2018-03-08T13:19:20.735Z,5.37
2018-03-08T13:21:49.595Z,5.83
2018-03-08T13:24:17.945Z,6.17
2018-03-08T13:26:47.040Z,6.50
2018-03-08T13:29:15.969Z,6.40
2018-03-08T13:31:44.381Z,5.00
2018-03-08T13:34:12.921Z,5.57
2018-03-08T13:36:41.275Z,5.33
2018-03-08T13:39:09.773Z,4.87
2018-03-08T13:41:38.902Z,4.67
2018-03-08T13:44:07.132Z,4.60
2018-03-08T13:46:35.502Z,4.10
2018-03-08T13:49:15.471Z,3.70
2018-03-08T13:51:43.735Z,3.60
2018-03-08T13:54:11.881Z,3.87
2018-03-08T13:56:40.051Z,3.80
2018-03-08T13:59:08.273Z,3.60
2018-03-08T14:01:36.600Z,3.60
2018-03-08T14:04:04.899Z,3.20
2018-03-08T14:06:33.793Z,3.23
2018-03-08T14:09:01.970Z,2.63
2018-03-08T14:11:30.884Z,2.83
2018-03-08T14:13:59.014Z,2.60
2018-03-08T14:16:28.024Z,2.50
2018-03-08T14:18:56.354Z,2.57
2018-03-08T14:21:24.600Z,2.90
2018-03-08T14:23:52.807Z,2.60
2018-03-08T14:26:20.961Z,2.60
2018-03-08T14:28:50.065Z,2.90
2018-03-08T14:31:18.217Z,2.30
2018-03-08T14:33:46.465Z,2.90
2018-03-08T14:36:15.660Z,2.40
2018-03-08T14:38:44.087Z,2.23
2018-03-08T14:41:12.560Z,2.67
2018-03-08T14:43:40.897Z,2.27
2018-03-08T14:46:09.040Z,1.90
2018-03-08T14:48:37.211Z,3.08
2018-03-08T14:51:05.717Z,2.00
2018-03-08T14:53:34.744Z,1.73
2018-03-08T14:56:03.061Z,1.70
2018-03-08T14:58:31.576Z,1.90
2018-03-08T15:01:00.494Z,2.23
2018-03-08T15:03:29.691Z,1.90
2018-03-08T15:05:58.000Z,2.40
2018-03-08T15:08:26.263Z,2.20
2018-03-08T15:10:54.469Z,2.40
2018-03-08T15:13:22.640Z,3.83
2018-03-08T15:15:50.994Z,1.97
2018-03-08T15:18:19.147Z,2.30
2018-03-08T15:20:48.006Z,2.60
2018-03-08T15:23:16.246Z,2.40
2018-03-08T15:25:44.481Z,2.70
2018-03-08T15:28:13.401Z,2.40
2018-03-08T15:30:41.548Z,2.40
2018-03-08T15:33:09.707Z,2.87
2018-03-08T15:35:38.634Z,2.50
2018-03-08T15:38:07.209Z,2.73
2018-03-08T15:40:35.366Z,2.70
2018-03-08T15:43:03.625Z,2.40
2018-03-08T15:45:32.642Z,2.77
2018-03-08T15:48:00.813Z,3.20
2018-03-08T15:50:29.722Z,2.93
2018-03-08T15:52:57.857Z,2.90
2018-03-08T15:55:26.016Z,2.50
2018-03-08T15:57:54.311Z,2.60
2018-03-08T16:00:23.338Z,3.00
2018-03-08T16:02:51.504Z,3.37
2018-03-08T16:05:19.714Z,3.53
2018-03-08T16:07:59.871Z,3.60
2018-03-08T16:10:36.006Z,3.20
2018-03-08T16:13:04.238Z,3.17
2018-03-08T16:15:32.378Z,3.80
2018-03-08T16:18:00.506Z,3.20
2018-03-08T16:20:28.687Z,2.27
2018-03-08T16:22:58.039Z,2.20
2018-03-08T16:25:26.227Z,2.20
2018-03-08T16:27:54.405Z,2.27
2018-03-08T16:30:22.701Z,2.43
2018-03-08T16:32:50.869Z,2.10
2018-03-08T16:35:19.840Z,2.67
2018-03-08T16:37:48.815Z,2.37
2018-03-08T16:40:17.009Z,2.10
2018-03-08T16:42:46.686Z,1.97
2018-03-08T16:45:15.415Z,2.23
2018-03-08T16:47:43.557Z,2.00
2018-03-08T16:50:11.731Z,2.20
2018-03-08T16:52:40.566Z,2.70
2018-03-08T16:55:08.757Z,2.70
2018-03-08T16:57:36.900Z,1.80
2018-03-08T17:00:05.109Z,2.00
2018-03-08T17:02:33.446Z,1.97
2018-03-08T17:05:02.380Z,2.00
2018-03-08T17:07:30.540Z,2.03
2018-03-08T17:09:58.935Z,2.03
2018-03-08T17:12:27.483Z,2.10
2018-03-08T17:14:55.664Z,2.73
2018-03-08T17:17:24.650Z,2.50
2018-03-08T17:19:54.308Z,2.37
2018-03-08T17:22:22.484Z,2.00
2018-03-08T17:24:50.661Z,2.10
2018-03-08T17:27:18.849Z,2.00
2018-03-08T17:29:47.548Z,1.93
2018-03-08T17:32:16.463Z,2.30
2018-03-08T17:34:45.511Z,2.30
2018-03-08T17:37:13.660Z,2.03
2018-03-08T17:39:41.829Z,2.20
2018-03-08T17:42:10.009Z,2.43
2018-03-08T17:44:38.141Z,2.30
2018-03-08T17:47:07.056Z,2.40
2018-03-08T17:49:36.054Z,2.40
2018-03-08T17:52:04.300Z,1.87
2018-03-08T17:54:33.230Z,2.43
2018-03-08T17:57:01.887Z,2.77
2018-03-08T17:59:30.793Z,2.40
2018-03-08T18:01:59.003Z,2.90
2018-03-08T18:04:27.380Z,2.30
2018-03-08T18:06:55.554Z,3.23
2018-03-08T18:09:23.832Z,2.80
2018-03-08T18:11:52.015Z,2.60
2018-03-08T18:14:20.958Z,3.60
2018-03-08T18:16:49.141Z,2.70
2018-03-08T18:19:17.592Z,3.03
2018-03-08T18:21:46.566Z,3.67
2018-03-08T18:24:14.971Z,3.13
2018-03-08T18:26:43.122Z,2.50
2018-03-08T18:29:12.044Z,2.50
2018-03-08T18:31:40.188Z,2.37
2018-03-08T18:34:08.368Z,2.47
2018-03-08T18:36:38.110Z,2.50
2018-03-08T18:39:06.364Z,2.47
2018-03-08T18:41:36.708Z,2.37
2018-03-08T18:44:05.143Z,2.47
2018-03-08T18:46:33.281Z,2.53
2018-03-08T18:49:01.592Z,2.00
2018-03-08T18:51:29.737Z,2.20
2018-03-08T18:53:58.377Z,2.83
2018-03-08T18:56:28.266Z,2.50
2018-03-08T18:58:56.564Z,4.87
2018-03-08T19:01:25.543Z,3.37
2018-03-08T19:03:54.741Z,3.43
2018-03-08T19:06:23.659Z,2.90
2018-03-08T19:08:52.574Z,2.70
2018-03-08T19:11:20.728Z,2.83
2018-03-08T19:13:50.555Z,2.57
2018-03-08T19:16:19.756Z,2.50
2018-03-08T19:18:48.174Z,2.80
2018-03-08T19:21:17.269Z,5.17
2018-03-08T19:23:45.405Z,2.97
2018-03-08T19:26:13.554Z,3.27
2018-03-08T19:28:42.337Z,2.93
2018-03-08T19:31:11.430Z,3.03
2018-03-08T19:33:40.460Z,3.50
2018-03-08T19:36:13.638Z,3.00
2018-03-08T19:38:45.166Z,3.03
2018-03-08T19:41:14.281Z,3.13
2018-03-08T19:43:42.584Z,3.10
2018-03-08T19:46:15.900Z,3.17
2018-03-08T19:48:44.386Z,3.40
2018-03-08T19:51:13.864Z,3.37
2018-03-08T19:53:42.846Z,3.33
2018-03-08T19:56:12.396Z,2.77
2018-03-08T19:58:40.634Z,2.63
2018-03-08T20:01:09.176Z,2.87
2018-03-08T20:03:38.169Z,2.33
2018-03-08T20:06:07.181Z,2.80
2018-03-08T20:08:36.091Z,3.00
2018-03-08T20:11:04.497Z,2.77
2018-03-08T20:13:33.743Z,2.90
2018-03-08T20:16:02.699Z,3.13
2018-03-08T20:18:30.875Z,3.03
2018-03-08T20:20:59.147Z,3.00
2018-03-08T20:23:27.328Z,2.80
2018-03-08T20:25:55.558Z,3.27
2018-03-08T20:28:23.710Z,3.50
2018-03-08T20:30:51.908Z,3.47
2018-03-08T20:33:20.049Z,3.03
2018-03-08T20:35:49.701Z,3.80
2018-03-08T20:38:17.909Z,3.03
2018-03-08T20:40:46.035Z,2.90
2018-03-08T20:43:14.193Z,3.70
2018-03-08T20:45:42.583Z,3.83
2018-03-08T20:48:10.722Z,3.03
2018-03-08T20:50:39.249Z,3.43
2018-03-08T20:53:07.693Z,3.83
2018-03-08T20:55:36.026Z,3.20
2018-03-08T20:58:05.122Z,3.37
2018-03-08T21:00:33.832Z,2.93
2018-03-08T21:03:03.027Z,3.47
2018-03-08T21:05:31.154Z,2.90
2018-03-08T21:07:59.315Z,2.80
2018-03-08T21:10:27.727Z,3.07
2018-03-08T21:12:55.859Z,2.97
2018-03-08T21:15:24.147Z,2.73
2018-03-08T21:17:53.446Z,3.00
2018-03-08T21:20:25.417Z,2.93
2018-03-08T21:22:53.554Z,3.20
2018-03-08T21:25:22.651Z,3.10
2018-03-08T21:27:51.570Z,3.07
2018-03-08T21:30:19.875Z,3.60
2018-03-08T21:32:48.157Z,3.40
2018-03-08T21:35:16.501Z,3.00
2018-03-08T21:37:44.648Z,3.40
2018-03-08T21:40:13.566Z,3.03
2018-03-08T21:42:42.330Z,3.17
2018-03-08T21:45:10.783Z,3.50
2018-03-08T21:47:39.108Z,3.00
2018-03-08T21:50:07.472Z,3.17
2018-03-08T21:52:35.999Z,3.60
2018-03-08T21:55:04.228Z,3.17
2018-03-08T21:57:33.197Z,3.07
2018-03-08T22:00:02.122Z,2.90
2018-03-08T22:02:30.259Z,3.10
2018-03-08T22:04:58.569Z,3.20
2018-03-08T22:07:28.167Z,3.07
2018-03-08T22:09:56.848Z,2.93
2018-03-08T22:12:25.044Z,3.10
2018-03-08T22:14:53.739Z,3.20
2018-03-08T22:17:21.892Z,3.17
2018-03-08T22:19:50.179Z,3.07
2018-03-08T22:22:18.342Z,3.50
2018-03-08T22:24:47.238Z,3.03
2018-03-08T22:27:15.694Z,3.43
2018-03-08T22:29:44.700Z,3.00
2018-03-08T22:32:13.612Z,3.40
2018-03-08T22:34:42.221Z,3.53
2018-03-08T22:37:10.354Z,2.90
2018-03-08T22:39:38.523Z,2.90
2018-03-08T22:42:07.005Z,3.20
2018-03-08T22:44:35.916Z,2.90
2018-03-08T22:47:04.105Z,3.13
2018-03-08T22:49:32.255Z,2.97
2018-03-08T22:52:00.387Z,3.60
2018-03-08T22:54:28.549Z,2.50
2018-03-08T22:56:56.962Z,2.80
2018-03-08T22:59:25.250Z,3.03
2018-03-08T23:02:12.308Z,3.03
2018-03-08T23:04:41.242Z,3.17
2018-03-08T23:07:10.159Z,2.87
2018-03-08T23:09:39.031Z,2.83
2018-03-08T23:12:07.343Z,2.67
2018-03-08T23:14:35.902Z,2.80
2018-03-08T23:17:04.144Z,2.50
2018-03-08T23:19:32.445Z,3.10
2018-03-08T23:22:01.351Z,3.20
2018-03-08T23:24:29.518Z,3.30
2018-03-08T23:26:58.761Z,2.73
2018-03-08T23:29:26.962Z,3.70
2018-03-08T23:31:55.100Z,3.23
2018-03-08T23:34:23.424Z,3.20
2018-03-08T23:36:52.218Z,3.00
2018-03-08T23:39:21.159Z,3.23
2018-03-08T23:41:49.472Z,3.40
2018-03-08T23:44:18.514Z,3.33
2018-03-08T23:46:46.752Z,3.13
2018-03-08T23:49:15.025Z,2.83
2018-03-08T23:51:48.863Z,3.40
2018-03-08T23:54:17.112Z,3.47
2018-03-08T23:56:45.443Z,4.10
2018-03-08T23:59:13.617Z,3.43
